Portada
METAR-TAF:

METAR-TAF

Aeroports :

Tahití, Polinèsia Francesa

latitud: 17-33S, longitud: 149-37W, altitud: 2 m

Observació

L'informe es va fer fa 20 minuts, a les 20:00 UTC
Vent 12 kt del Nord-Est
Temperatura 31°C
Humitat 66%
Pressió 1012 hPa
Visibilitat 10 km o més
Escasses núvols a una alçada de 2300 ft

METAR: NTAA 142000Z 05012KT 9999 FEW023 31/24 Q1012 NOSIG

Hora: 10:20 (20:20 UTC)

Pronòstic

L'informe es va fer fa 3 hores i 20 minuts, a les 17:00 UTC
Pronòstic vàlid del 14 a les 18 UTC al 15 a les 24 UTC
Vent 3 kt amb direcció variable
Visibilitat 10 km o més
Escasses núvols a una alçada de 2000 ft
Evolucionant progressivament
l' 14 a les 19 UTC al 14 a les 21 UTC
Vent 15 kt del Nord-Est
Evolucionant progressivament
l' 15 a les 04 UTC al 15 a les 06 UTC
Vent 3 kt amb direcció variable

TAF: NTAA 141700Z 1418/1524 VRB03KT 9999 FEW020 BECMG 1419/1421 05015KT BECMG 1504/1506 VRB03KT

Observacions i pronòstics meteorològics de més de 4000 aeroports (METAR i TAF).

Les estacions disponibles són els punts grocs i vermells al mapa.

Posi el ratolí al punt desitjat per veure el nom de l'estació.

Feu clic per veure les observacions i els pronòstics meteorològics.

Per canviar el mapa: feu clic els botons verds amb una creu de color negre per apropar; al botó verd amb un guió per allunyar la imatge; o en les fletxes verdes per a mapes adjacents.


METAR-TAF: